sensor_id;sensor_type;location;lat;lon;timestamp;temperature;humidity
6178;DHT22;3122;48.208;11.174;2023-07-22T00:03:48;14.90;1.00
6178;DHT22;3122;48.208;11.174;2023-07-22T00:08:49;14.80;1.00
6178;DHT22;3122;48.208;11.174;2023-07-22T00:13:50;14.90;1.00
6178;DHT22;3122;48.208;11.174;2023-07-22T00:18:52;14.80;1.00
6178;DHT22;3122;48.208;11.174;2023-07-22T00:23:54;14.70;1.00
6178;DHT22;3122;48.208;11.174;2023-07-22T00:28:54;14.60;1.00
6178;DHT22;3122;48.208;11.174;2023-07-22T00:33:55;14.60;1.00
6178;DHT22;3122;48.208;11.174;2023-07-22T00:38:55;14.60;1.00
6178;DHT22;3122;48.208;11.174;2023-07-22T00:43:56;14.50;1.00
6178;DHT22;3122;48.208;11.174;2023-07-22T00:48:57;14.40;1.00
6178;DHT22;3122;48.208;11.174;2023-07-22T00:53:57;14.50;1.00
6178;DHT22;3122;48.208;11.174;2023-07-22T00:58:58;14.50;1.00
6178;DHT22;3122;48.208;11.174;2023-07-22T01:03:59;14.40;1.00
6178;DHT22;3122;48.208;11.174;2023-07-22T01:09:01;14.40;1.00
6178;DHT22;3122;48.208;11.174;2023-07-22T01:14:02;14.50;1.00
6178;DHT22;3122;48.208;11.174;2023-07-22T01:19:04;14.30;1.00
6178;DHT22;3122;48.208;11.174;2023-07-22T01:24:05;14.30;1.00
6178;DHT22;3122;48.208;11.174;2023-07-22T01:29:06;14.20;1.00
6178;DHT22;3122;48.208;11.174;2023-07-22T01:34:07;14.10;1.00
6178;DHT22;3122;48.208;11.174;2023-07-22T01:39:07;14.10;1.00
6178;DHT22;3122;48.208;11.174;2023-07-22T01:44:08;14.10;1.00
6178;DHT22;3122;48.208;11.174;2023-07-22T01:49:12;14.20;1.00
6178;DHT22;3122;48.208;11.174;2023-07-22T01:54:13;14.20;1.00
6178;DHT22;3122;48.208;11.174;2023-07-22T01:59:13;14.20;1.00
6178;DHT22;3122;48.208;11.174;2023-07-22T02:04:14;14.20;1.00
6178;DHT22;3122;48.208;11.174;2023-07-22T02:09:14;14.20;1.00
6178;DHT22;3122;48.208;11.174;2023-07-22T02:14:15;14.20;1.00
6178;DHT22;3122;48.208;11.174;2023-07-22T02:19:15;14.20;1.00
6178;DHT22;3122;48.208;11.174;2023-07-22T02:24:16;14.20;1.00
6178;DHT22;3122;48.208;11.174;2023-07-22T02:29:17;14.20;1.00
6178;DHT22;3122;48.208;11.174;2023-07-22T02:34:19;14.20;1.00
6178;DHT22;3122;48.208;11.174;2023-07-22T02:39:20;14.10;1.00
6178;DHT22;3122;48.208;11.174;2023-07-22T02:44:21;14.10;1.00
6178;DHT22;3122;48.208;11.174;2023-07-22T02:49:21;14.10;1.00
6178;DHT22;3122;48.208;11.174;2023-07-22T02:54:22;14.10;1.00
6178;DHT22;3122;48.208;11.174;2023-07-22T02:59:22;14.00;1.00
6178;DHT22;3122;48.208;11.174;2023-07-22T03:04:23;13.90;1.00
6178;DHT22;3122;48.208;11.174;2023-07-22T03:09:24;13.80;1.00
6178;DHT22;3122;48.208;11.174;2023-07-22T03:14:24;13.70;1.00
6178;DHT22;3122;48.208;11.174;2023-07-22T03:19:26;13.70;1.00
6178;DHT22;3122;48.208;11.174;2023-07-22T03:24:27;13.80;1.00
6178;DHT22;3122;48.208;11.174;2023-07-22T03:29:27;13.70;1.00
6178;DHT22;3122;48.208;11.174;2023-07-22T03:34:29;13.60;1.00
6178;DHT22;3122;48.208;11.174;2023-07-22T03:39:30;13.60;1.00
6178;DHT22;3122;48.208;11.174;2023-07-22T03:44:30;13.60;1.00
6178;DHT22;3122;48.208;11.174;2023-07-22T03:49:31;13.70;1.00
6178;DHT22;3122;48.208;11.174;2023-07-22T03:54:31;13.60;1.00
6178;DHT22;3122;48.208;11.174;2023-07-22T03:59:32;13.50;1.00
6178;DHT22;3122;48.208;11.174;2023-07-22T04:04:33;13.40;1.00
6178;DHT22;3122;48.208;11.174;2023-07-22T04:09:34;13.50;1.00
6178;DHT22;3122;48.208;11.174;2023-07-22T04:14:35;13.50;1.00
6178;DHT22;3122;48.208;11.174;2023-07-22T04:19:35;13.50;1.00
6178;DHT22;3122;48.208;11.174;2023-07-22T04:24:36;13.60;1.00
6178;DHT22;3122;48.208;11.174;2023-07-22T04:29:36;13.70;1.00
6178;DHT22;3122;48.208;11.174;2023-07-22T04:34:37;13.80;1.00
6178;DHT22;3122;48.208;11.174;2023-07-22T04:39:38;13.90;1.00
6178;DHT22;3122;48.208;11.174;2023-07-22T04:44:38;14.00;1.00
6178;DHT22;3122;48.208;11.174;2023-07-22T04:49:39;14.10;1.00
6178;DHT22;3122;48.208;11.174;2023-07-22T04:54:41;14.30;1.00
6178;DHT22;3122;48.208;11.174;2023-07-22T04:59:42;14.50;1.00
6178;DHT22;3122;48.208;11.174;2023-07-22T05:04:42;14.60;1.00
6178;DHT22;3122;48.208;11.174;2023-07-22T05:09:43;14.70;1.00
6178;DHT22;3122;48.208;11.174;2023-07-22T05:14:45;14.70;1.00
6178;DHT22;3122;48.208;11.174;2023-07-22T05:19:46;14.70;1.00
6178;DHT22;3122;48.208;11.174;2023-07-22T05:24:49;14.70;1.00
6178;DHT22;3122;48.208;11.174;2023-07-22T05:29:50;14.70;1.00
6178;DHT22;3122;48.208;11.174;2023-07-22T05:34:50;14.80;1.00
6178;DHT22;3122;48.208;11.174;2023-07-22T05:39:51;14.90;1.00
6178;DHT22;3122;48.208;11.174;2023-07-22T05:44:54;15.00;1.00
6178;DHT22;3122;48.208;11.174;2023-07-22T05:49:54;15.20;1.00
6178;DHT22;3122;48.208;11.174;2023-07-22T05:54:55;15.40;1.00
6178;DHT22;3122;48.208;11.174;2023-07-22T05:59:55;15.60;1.00
6178;DHT22;3122;48.208;11.174;2023-07-22T06:04:56;15.70;1.00
6178;DHT22;3122;48.208;11.174;2023-07-22T06:09:56;15.70;1.00
6178;DHT22;3122;48.208;11.174;2023-07-22T06:14:58;15.70;1.00
6178;DHT22;3122;48.208;11.174;2023-07-22T06:19:59;15.80;1.00
6178;DHT22;3122;48.208;11.174;2023-07-22T06:24:59;15.80;1.00
6178;DHT22;3122;48.208;11.174;2023-07-22T06:30:00;15.80;1.00
6178;DHT22;3122;48.208;11.174;2023-07-22T06:35:00;16.00;1.00
6178;DHT22;3122;48.208;11.174;2023-07-22T06:40:01;16.30;1.00
6178;DHT22;3122;48.208;11.174;2023-07-22T06:45:03;16.50;1.00
6178;DHT22;3122;48.208;11.174;2023-07-22T06:50:04;16.50;1.00
6178;DHT22;3122;48.208;11.174;2023-07-22T06:55:06;16.60;1.00
6178;DHT22;3122;48.208;11.174;2023-07-22T07:00:07;16.80;1.00
6178;DHT22;3122;48.208;11.174;2023-07-22T07:05:08;16.90;1.00
6178;DHT22;3122;48.208;11.174;2023-07-22T07:10:09;16.90;1.00
6178;DHT22;3122;48.208;11.174;2023-07-22T07:15:10;17.10;1.00
6178;DHT22;3122;48.208;11.174;2023-07-22T07:20:13;17.10;1.00
6178;DHT22;3122;48.208;11.174;2023-07-22T07:25:14;17.20;1.00
6178;DHT22;3122;48.208;11.174;2023-07-22T07:30:15;17.30;1.00
6178;DHT22;3122;48.208;11.174;2023-07-22T07:35:16;17.40;1.00
6178;DHT22;3122;48.208;11.174;2023-07-22T07:40:16;17.70;1.00
6178;DHT22;3122;48.208;11.174;2023-07-22T07:45:17;18.00;1.00
6178;DHT22;3122;48.208;11.174;2023-07-22T07:50:18;18.00;1.00
6178;DHT22;3122;48.208;11.174;2023-07-22T07:55:18;18.10;1.00
6178;DHT22;3122;48.208;11.174;2023-07-22T08:00:19;18.30;1.00
6178;DHT22;3122;48.208;11.174;2023-07-22T08:05:20;18.50;1.00
6178;DHT22;3122;48.208;11.174;2023-07-22T08:10:21;18.40;1.00
6178;DHT22;3122;48.208;11.174;2023-07-22T08:15:21;18.70;1.00
6178;DHT22;3122;48.208;11.174;2023-07-22T08:20:22;18.80;1.00
6178;DHT22;3122;48.208;11.174;2023-07-22T08:25:23;18.90;1.00
6178;DHT22;3122;48.208;11.174;2023-07-22T08:30:23;19.10;1.00
6178;DHT22;3122;48.208;11.174;2023-07-22T08:35:24;18.90;1.00
6178;DHT22;3122;48.208;11.174;2023-07-22T08:40:25;19.10;1.00
6178;DHT22;3122;48.208;11.174;2023-07-22T08:45:29;19.60;1.00
6178;DHT22;3122;48.208;11.174;2023-07-22T08:50:34;19.80;1.00
6178;DHT22;3122;48.208;11.174;2023-07-22T08:55:37;19.70;1.00
6178;DHT22;3122;48.208;11.174;2023-07-22T09:00:40;19.80;1.00
6178;DHT22;3122;48.208;11.174;2023-07-22T09:05:42;19.90;1.00
6178;DHT22;3122;48.208;11.174;2023-07-22T09:10:43;19.70;1.00
6178;DHT22;3122;48.208;11.174;2023-07-22T09:15:45;19.80;1.00
6178;DHT22;3122;48.208;11.174;2023-07-22T09:20:46;20.10;1.00
6178;DHT22;3122;48.208;11.174;2023-07-22T09:25:46;20.10;1.00
6178;DHT22;3122;48.208;11.174;2023-07-22T09:30:47;20.40;1.00
6178;DHT22;3122;48.208;11.174;2023-07-22T09:35:48;20.70;1.00
6178;DHT22;3122;48.208;11.174;2023-07-22T09:40:49;20.80;1.00
6178;DHT22;3122;48.208;11.174;2023-07-22T09:45:50;20.60;1.00
6178;DHT22;3122;48.208;11.174;2023-07-22T09:50:57;20.60;1.00
6178;DHT22;3122;48.208;11.174;2023-07-22T09:56:03;20.40;1.00
6178;DHT22;3122;48.208;11.174;2023-07-22T10:01:05;20.40;1.00
6178;DHT22;3122;48.208;11.174;2023-07-22T10:06:08;20.50;1.00
6178;DHT22;3122;48.208;11.174;2023-07-22T10:11:09;20.60;1.00
6178;DHT22;3122;48.208;11.174;2023-07-22T10:16:11;20.60;1.00
6178;DHT22;3122;48.208;11.174;2023-07-22T10:21:13;20.80;1.00
6178;DHT22;3122;48.208;11.174;2023-07-22T10:26:18;20.60;1.00
6178;DHT22;3122;48.208;11.174;2023-07-22T10:31:19;20.80;1.00
6178;DHT22;3122;48.208;11.174;2023-07-22T10:36:20;20.80;1.00
6178;DHT22;3122;48.208;11.174;2023-07-22T10:41:21;21.40;1.00
6178;DHT22;3122;48.208;11.174;2023-07-22T10:46:33;21.30;1.00
6178;DHT22;3122;48.208;11.174;2023-07-22T10:51:36;21.70;1.00
6178;DHT22;3122;48.208;11.174;2023-07-22T10:56:37;21.70;1.00
6178;DHT22;3122;48.208;11.174;2023-07-22T11:01:39;21.70;1.00
6178;DHT22;3122;48.208;11.174;2023-07-22T11:06:52;22.20;1.00
6178;DHT22;3122;48.208;11.174;2023-07-22T11:12:17;22.60;1.00
6178;DHT22;3122;48.208;11.174;2023-07-22T11:17:30;22.60;1.00
6178;DHT22;3122;48.208;11.174;2023-07-22T11:22:31;21.80;1.00
6178;DHT22;3122;48.208;11.174;2023-07-22T11:27:32;21.90;1.00
6178;DHT22;3122;48.208;11.174;2023-07-22T11:32:32;22.00;1.00
6178;DHT22;3122;48.208;11.174;2023-07-22T11:37:33;22.10;1.00
6178;DHT22;3122;48.208;11.174;2023-07-22T11:42:34;22.10;1.00
6178;DHT22;3122;48.208;11.174;2023-07-22T11:47:35;22.60;1.00
6178;DHT22;3122;48.208;11.174;2023-07-22T11:52:36;22.70;1.00
6178;DHT22;3122;48.208;11.174;2023-07-22T11:57:39;22.50;1.00
6178;DHT22;3122;48.208;11.174;2023-07-22T12:02:41;23.00;1.00
6178;DHT22;3122;48.208;11.174;2023-07-22T12:07:42;23.10;1.00
6178;DHT22;3122;48.208;11.174;2023-07-22T12:12:45;23.30;1.00
6178;DHT22;3122;48.208;11.174;2023-07-22T12:17:57;23.60;1.00
6178;DHT22;3122;48.208;11.174;2023-07-22T12:22:58;23.60;1.00
6178;DHT22;3122;48.208;11.174;2023-07-22T12:27:58;23.70;1.00
6178;DHT22;3122;48.208;11.174;2023-07-22T12:33:00;23.90;1.00
6178;DHT22;3122;48.208;11.174;2023-07-22T12:38:00;24.10;1.00
6178;DHT22;3122;48.208;11.174;2023-07-22T12:43:01;24.10;1.00
6178;DHT22;3122;48.208;11.174;2023-07-22T12:48:01;23.80;1.00
6178;DHT22;3122;48.208;11.174;2023-07-22T12:53:03;23.90;1.00
6178;DHT22;3122;48.208;11.174;2023-07-22T12:58:03;24.20;1.00
6178;DHT22;3122;48.208;11.174;2023-07-22T13:03:04;24.30;1.00
6178;DHT22;3122;48.208;11.174;2023-07-22T13:08:05;24.00;1.00
6178;DHT22;3122;48.208;11.174;2023-07-22T13:13:05;24.30;1.00
6178;DHT22;3122;48.208;11.174;2023-07-22T13:18:06;24.30;1.00
6178;DHT22;3122;48.208;11.174;2023-07-22T13:23:07;24.10;1.00
6178;DHT22;3122;48.208;11.174;2023-07-22T13:28:08;24.10;1.00
6178;DHT22;3122;48.208;11.174;2023-07-22T13:33:08;23.60;1.00
6178;DHT22;3122;48.208;11.174;2023-07-22T13:38:09;24.00;1.00
6178;DHT22;3122;48.208;11.174;2023-07-22T13:43:10;23.90;1.00
6178;DHT22;3122;48.208;11.174;2023-07-22T13:48:11;24.00;1.00
6178;DHT22;3122;48.208;11.174;2023-07-22T13:53:12;24.20;1.00
6178;DHT22;3122;48.208;11.174;2023-07-22T13:58:12;24.30;1.00
6178;DHT22;3122;48.208;11.174;2023-07-22T14:03:14;24.60;1.00
6178;DHT22;3122;48.208;11.174;2023-07-22T14:08:15;24.50;1.00
6178;DHT22;3122;48.208;11.174;2023-07-22T14:13:15;24.10;1.00
6178;DHT22;3122;48.208;11.174;2023-07-22T14:18:16;24.60;1.00
6178;DHT22;3122;48.208;11.174;2023-07-22T14:23:18;24.70;1.00
6178;DHT22;3122;48.208;11.174;2023-07-22T14:28:18;25.00;1.00
6178;DHT22;3122;48.208;11.174;2023-07-22T14:33:19;25.20;1.00
6178;DHT22;3122;48.208;11.174;2023-07-22T14:38:20;25.00;1.00
6178;DHT22;3122;48.208;11.174;2023-07-22T14:43:20;25.20;1.00
6178;DHT22;3122;48.208;11.174;2023-07-22T14:48:21;25.00;1.00
6178;DHT22;3122;48.208;11.174;2023-07-22T14:53:22;24.90;1.00
6178;DHT22;3122;48.208;11.174;2023-07-22T14:58:22;24.70;1.00
6178;DHT22;3122;48.208;11.174;2023-07-22T15:03:23;24.90;1.00
6178;DHT22;3122;48.208;11.174;2023-07-22T15:08:23;25.20;1.00
6178;DHT22;3122;48.208;11.174;2023-07-22T15:13:24;25.20;1.00
6178;DHT22;3122;48.208;11.174;2023-07-22T15:18:25;25.00;1.00
6178;DHT22;3122;48.208;11.174;2023-07-22T15:23:25;24.80;1.00
6178;DHT22;3122;48.208;11.174;2023-07-22T15:28:26;25.40;1.00
6178;DHT22;3122;48.208;11.174;2023-07-22T15:33:27;25.90;1.00
6178;DHT22;3122;48.208;11.174;2023-07-22T15:38:27;26.30;1.00
6178;DHT22;3122;48.208;11.174;2023-07-22T15:43:28;25.80;1.00
6178;DHT22;3122;48.208;11.174;2023-07-22T15:48:29;25.40;1.00
6178;DHT22;3122;48.208;11.174;2023-07-22T15:53:29;25.80;1.00
6178;DHT22;3122;48.208;11.174;2023-07-22T15:58:30;25.80;1.00
6178;DHT22;3122;48.208;11.174;2023-07-22T16:03:30;25.60;1.00
6178;DHT22;3122;48.208;11.174;2023-07-22T16:08:31;25.30;1.00
6178;DHT22;3122;48.208;11.174;2023-07-22T16:13:32;25.40;1.00
6178;DHT22;3122;48.208;11.174;2023-07-22T16:18:33;25.90;1.00
6178;DHT22;3122;48.208;11.174;2023-07-22T16:23:35;25.10;1.00
6178;DHT22;3122;48.208;11.174;2023-07-22T16:28:35;24.80;1.00
6178;DHT22;3122;48.208;11.174;2023-07-22T16:33:36;24.80;1.00
6178;DHT22;3122;48.208;11.174;2023-07-22T16:38:36;25.10;1.00
6178;DHT22;3122;48.208;11.174;2023-07-22T16:43:37;25.70;1.00
6178;DHT22;3122;48.208;11.174;2023-07-22T16:48:38;26.00;1.00
6178;DHT22;3122;48.208;11.174;2023-07-22T16:53:38;26.30;1.00
6178;DHT22;3122;48.208;11.174;2023-07-22T16:58:39;26.40;1.00
6178;DHT22;3122;48.208;11.174;2023-07-22T17:03:40;26.10;1.00
6178;DHT22;3122;48.208;11.174;2023-07-22T17:08:40;25.90;1.00
6178;DHT22;3122;48.208;11.174;2023-07-22T17:13:41;25.40;1.00
6178;DHT22;3122;48.208;11.174;2023-07-22T17:18:41;25.10;1.00
6178;DHT22;3122;48.208;11.174;2023-07-22T17:23:42;24.70;1.00
6178;DHT22;3122;48.208;11.174;2023-07-22T17:28:42;24.60;1.00
6178;DHT22;3122;48.208;11.174;2023-07-22T17:33:43;24.80;1.00
6178;DHT22;3122;48.208;11.174;2023-07-22T17:38:44;24.60;1.00
6178;DHT22;3122;48.208;11.174;2023-07-22T17:43:44;24.50;1.00
6178;DHT22;3122;48.208;11.174;2023-07-22T17:48:45;24.10;1.00
6178;DHT22;3122;48.208;11.174;2023-07-22T17:53:45;24.00;1.00
6178;DHT22;3122;48.208;11.174;2023-07-22T17:58:46;23.70;1.00
6178;DHT22;3122;48.208;11.174;2023-07-22T18:03:47;23.60;1.00
6178;DHT22;3122;48.208;11.174;2023-07-22T18:08:48;23.40;1.00
6178;DHT22;3122;48.208;11.174;2023-07-22T18:13:48;23.40;1.00
6178;DHT22;3122;48.208;11.174;2023-07-22T18:18:54;23.30;1.00
6178;DHT22;3122;48.208;11.174;2023-07-22T18:23:55;23.20;1.00
6178;DHT22;3122;48.208;11.174;2023-07-22T18:28:57;23.10;1.00
6178;DHT22;3122;48.208;11.174;2023-07-22T18:33:57;22.90;1.00
6178;DHT22;3122;48.208;11.174;2023-07-22T18:38:58;22.70;1.00
6178;DHT22;3122;48.208;11.174;2023-07-22T18:43:58;22.60;1.00
6178;DHT22;3122;48.208;11.174;2023-07-22T18:48:59;22.40;1.00
6178;DHT22;3122;48.208;11.174;2023-07-22T18:54:00;22.40;1.00
6178;DHT22;3122;48.208;11.174;2023-07-22T18:59:01;22.20;1.00
6178;DHT22;3122;48.208;11.174;2023-07-22T19:04:01;22.00;1.00
6178;DHT22;3122;48.208;11.174;2023-07-22T19:09:02;22.00;1.00
6178;DHT22;3122;48.208;11.174;2023-07-22T19:14:03;21.90;1.00
6178;DHT22;3122;48.208;11.174;2023-07-22T19:19:03;21.60;1.00
6178;DHT22;3122;48.208;11.174;2023-07-22T19:24:04;21.40;1.00
6178;DHT22;3122;48.208;11.174;2023-07-22T19:29:05;21.10;1.00
6178;DHT22;3122;48.208;11.174;2023-07-22T19:34:05;21.00;1.00
6178;DHT22;3122;48.208;11.174;2023-07-22T19:39:06;20.90;1.00
6178;DHT22;3122;48.208;11.174;2023-07-22T19:44:06;20.80;1.00
6178;DHT22;3122;48.208;11.174;2023-07-22T19:49:07;20.60;1.00
6178;DHT22;3122;48.208;11.174;2023-07-22T19:54:07;20.50;1.00
6178;DHT22;3122;48.208;11.174;2023-07-22T19:59:08;20.40;1.00
6178;DHT22;3122;48.208;11.174;2023-07-22T20:04:09;20.20;1.00
6178;DHT22;3122;48.208;11.174;2023-07-22T20:09:09;20.20;1.00
6178;DHT22;3122;48.208;11.174;2023-07-22T20:14:10;20.00;1.00
6178;DHT22;3122;48.208;11.174;2023-07-22T20:19:10;19.80;1.00
6178;DHT22;3122;48.208;11.174;2023-07-22T20:24:11;19.90;1.00
6178;DHT22;3122;48.208;11.174;2023-07-22T20:29:11;19.80;1.00
6178;DHT22;3122;48.208;11.174;2023-07-22T20:34:12;19.80;1.00
6178;DHT22;3122;48.208;11.174;2023-07-22T20:39:12;19.60;1.00
6178;DHT22;3122;48.208;11.174;2023-07-22T20:44:13;19.60;1.00
6178;DHT22;3122;48.208;11.174;2023-07-22T20:49:14;19.40;1.00
6178;DHT22;3122;48.208;11.174;2023-07-22T20:54:14;19.40;1.00
6178;DHT22;3122;48.208;11.174;2023-07-22T20:59:15;19.20;1.00
6178;DHT22;3122;48.208;11.174;2023-07-22T21:04:15;19.10;1.00
6178;DHT22;3122;48.208;11.174;2023-07-22T21:09:16;19.00;1.00
6178;DHT22;3122;48.208;11.174;2023-07-22T21:14:17;18.90;1.00
6178;DHT22;3122;48.208;11.174;2023-07-22T21:19:17;18.80;1.00
6178;DHT22;3122;48.208;11.174;2023-07-22T21:24:18;18.70;1.00
6178;DHT22;3122;48.208;11.174;2023-07-22T21:29:18;18.70;1.00
6178;DHT22;3122;48.208;11.174;2023-07-22T21:34:19;18.50;1.00
6178;DHT22;3122;48.208;11.174;2023-07-22T21:39:20;18.60;1.00
6178;DHT22;3122;48.208;11.174;2023-07-22T21:44:20;18.50;1.00
6178;DHT22;3122;48.208;11.174;2023-07-22T21:49:21;18.40;1.00
6178;DHT22;3122;48.208;11.174;2023-07-22T21:54:21;18.30;1.00
6178;DHT22;3122;48.208;11.174;2023-07-22T21:59:22;18.00;1.00
6178;DHT22;3122;48.208;11.174;2023-07-22T22:04:22;17.80;1.00
6178;DHT22;3122;48.208;11.174;2023-07-22T22:09:23;17.80;1.00
6178;DHT22;3122;48.208;11.174;2023-07-22T22:14:24;17.90;1.00
6178;DHT22;3122;48.208;11.174;2023-07-22T22:19:24;17.80;1.00
6178;DHT22;3122;48.208;11.174;2023-07-22T22:24:25;18.00;1.00
6178;DHT22;3122;48.208;11.174;2023-07-22T22:29:26;17.70;1.00
6178;DHT22;3122;48.208;11.174;2023-07-22T22:34:27;17.60;1.00
6178;DHT22;3122;48.208;11.174;2023-07-22T22:39:27;17.70;1.00
6178;DHT22;3122;48.208;11.174;2023-07-22T22:44:28;17.70;1.00
6178;DHT22;3122;48.208;11.174;2023-07-22T22:49:29;17.60;1.00
6178;DHT22;3122;48.208;11.174;2023-07-22T22:54:29;17.50;1.00
6178;DHT22;3122;48.208;11.174;2023-07-22T22:59:30;17.50;1.00
6178;DHT22;3122;48.208;11.174;2023-07-22T23:04:30;17.30;1.00
6178;DHT22;3122;48.208;11.174;2023-07-22T23:09:31;17.40;1.00
6178;DHT22;3122;48.208;11.174;2023-07-22T23:14:31;17.20;1.00
6178;DHT22;3122;48.208;11.174;2023-07-22T23:19:35;17.20;1.00
6178;DHT22;3122;48.208;11.174;2023-07-22T23:24:36;17.10;1.00
6178;DHT22;3122;48.208;11.174;2023-07-22T23:29:37;17.10;1.00
6178;DHT22;3122;48.208;11.174;2023-07-22T23:34:38;16.80;1.00
6178;DHT22;3122;48.208;11.174;2023-07-22T23:39:39;16.80;1.00
6178;DHT22;3122;48.208;11.174;2023-07-22T23:44:39;16.80;1.00
6178;DHT22;3122;48.208;11.174;2023-07-22T23:49:40;16.80;1.00
6178;DHT22;3122;48.208;11.174;2023-07-22T23:54:40;16.80;1.00
6178;DHT22;3122;48.208;11.174;2023-07-22T23:59:41;16.70;1.00
